Moapa Valley, Nevada Weather observations

Data are for 10 minute period ending at time listed.
 Day   Time   Solar   Ave.   Ave.  Ave.  Vector  Max.   Baro.   Total    
  of    of     Rad.   Air    Rel.  Wind   Wind   Wind  Press.  Precip.   
Year   Day            Temp.  Hum.  Speed  Dir.   Gust                    
2015   (PST)  Kw/m2    F      %     mph   deg.    mph    mb.     in.     
-------------------------------------------------------------------------
 180    0:00   0.00   88.1    32    2.0   151     3.8   962.4    0.00 
 180    0:10   0.00   88.0    31    1.3   219     2.1   962.5    0.00 
 180    0:20   0.00   88.5    31    0.4   232     1.7   962.5    0.00 
 180    0:30   0.00   86.8    34    2.0   183     3.5   962.5    0.00 
 180    0:40   0.00   86.6    34    2.6   169     3.5   962.6    0.00 
 180    0:50   0.00   87.0    33    2.3   121     2.8   962.6    0.00 
 180    1:00   0.00   85.0    37    1.5   154     2.8   962.7    0.00 
 180    1:10   0.00   84.9    35    0.6   335     1.7   962.7    0.00 
 180    1:20   0.00   84.3    37    2.4   308     3.5   962.8    0.00 
 180    1:30   0.00   82.5    41    0.8   309     2.8   962.8    0.00 
 180    1:40   0.00   82.1    44    1.4   214     2.4   962.8    0.00 
 180    1:50   0.00   83.1    41    1.8   201     3.1   962.9    0.00 
 180    2:00   0.00   82.2    41    1.8   341     2.8   963.0    0.00 
 180    2:10   0.00   81.2    43    1.9   309     2.4   963.0    0.00 
 180    2:20   0.00   79.9    48    0.5   281     1.7   963.0    0.00 
 180    2:30   0.00   82.4    41    1.2   221     2.1   963.0    0.00 
 180    2:40   0.00   83.8    40    1.4   187     2.8   963.0    0.00 
 180    2:50   0.00   85.4    37    2.7   164     4.9   963.1    0.00 
 180    3:00   0.00   86.5    35    2.8   182     4.6   963.1    0.00 
 180    3:10   0.00   86.3    35    2.9   194     4.2   963.2    0.00 
 180    3:20   0.00   86.6    34    3.2   184     4.9   963.3    0.00 
 180    3:30   0.00   86.0    36    1.4   160     3.5   963.3    0.00 
 180    3:40   0.00   85.1    36    1.1   262     2.1   963.5    0.00 
 180    3:50   0.00   84.3    37    1.8   333     2.4   963.7    0.00 
 180    4:00   0.00   83.4    39    1.8   312     2.8   963.8    0.00 
 180    4:10   0.00   83.3    38    1.1   295     2.1   963.9    0.00 
 180    4:20   0.00   83.9    38    2.0     8     2.8   964.1    0.00 
 180    4:30   0.01   81.0    44    1.4   311     3.1   964.3    0.00 
 180    4:40   0.01   79.5    48    2.4   267     3.8   964.4    0.00 
 180    4:50   0.04   79.3    49    1.9   229     3.5   964.6    0.00 
 180    5:00   0.06   80.5    47    2.2   318     3.8   964.7    0.00 
 180    5:10   0.08   80.5    49    1.8   331     3.5   964.7    0.00 
 180    5:20   0.11   81.3    50    1.9   333     2.8   964.6    0.00 
 180    5:30   0.14   82.7    49    2.3   324     3.5   964.6    0.00 
 180    5:40   0.17   84.0    47    2.3   345     3.1   964.7    0.00 
 180    5:50   0.20   85.1    44    2.0   327     3.1   964.9    0.00 
 180    6:00   0.24   87.9    41    0.4   350     1.7   964.9    0.00 
 180    6:10   0.27   90.2    40    1.1   284     3.8   965.0    0.00 
 180    6:20   0.31   90.9    36    2.6   276     3.5   965.0    0.00 
 180    6:30   0.35   91.9    34    2.0   296     3.1   965.1    0.00 
 180    6:40   0.39   94.4    32    0.0   255     1.0   965.2    0.00 
 180    6:50   0.43   96.1    32    0.1   213     1.0   965.3    0.00 
 180    7:00   0.47   95.5    34    0.3   224     1.3   965.3    0.00 
 180    7:10   0.50   96.3    31    1.1   222     3.1   965.2    0.00 
 180    7:20   0.54   97.2    28    0.6   110     1.7   965.3    0.00 
 180    7:30   0.57   98.5    25    1.2    60     3.1   965.3    0.00 
 180    7:40   0.61   97.7    28    1.8   109     3.1   965.3    0.00 
 180    7:50   0.64   96.0    32    2.9   124     5.3   965.3    0.00 
 180    8:00   0.68   95.4    34    2.6   114     4.6   965.3    0.00 
 180    8:10   0.72   96.7    36    1.6   141     3.5   965.3    0.00 
 180    8:20   0.75   98.0    31    2.6   118     4.9   965.3    0.00 
 180    8:30   0.78   97.3    32    3.4   115     7.8   965.3    0.00 
 180    8:40   0.81   97.4    30    4.5   114     6.3   965.1    0.00 
 180    8:50   0.84   97.6    29    4.8   114     7.4   965.0    0.00 
 180    9:00   0.88   97.7    29    5.3   108     8.1   965.0    0.00 
 180    9:10   0.89   99.0    28    4.2   101     6.7   965.0    0.00 
 180    9:20   0.93   99.5    28    4.0   102     7.4   964.9    0.00 
 180    9:30   0.95   99.1    28    5.1   112     8.1   964.8    0.00 
 180    9:40   0.97   99.2    28    6.1   110     9.2   964.8    0.00 
 180    9:50   0.99  100.3    25    4.7    93     7.4   964.7    0.00 
 180   10:00   1.01  100.7    27    5.0   117     7.4   964.5    0.00 
 180   10:10   1.02  100.6    27    4.7   104     7.8   964.5    0.00 
 180   10:20   1.04  101.4    26    4.3   118     8.1   964.5    0.00 
 180   10:30   1.05  101.3    26    5.5   121     9.6   964.5    0.00 
 180   10:40   1.06  102.3    24    3.5   135     8.5   964.4    0.00 
 180   10:50   1.08  102.3    25    5.6    96     9.6   964.3    0.00 
 180   11:00   1.09  103.6    25    4.9   106    12.8   964.2    0.00 
 180   11:10   1.10  103.9    20    2.6    90     6.3   964.1    0.00 
 180   11:20   1.10  104.6    24    4.3   124     9.2   964.0    0.00 
 180   11:30   1.11  104.4    23    2.7   113     7.1   963.9    0.00 
 180   11:40   1.11  104.7    24    4.1   106     7.1   963.8    0.00 
 180   11:50   1.08  104.3    23    4.4   103     9.2   963.6    0.00 
 180   12:00   1.08  103.8    23    5.3   105    10.6   963.5    0.00 
 180   12:10   1.09  106.8    18    3.8    53     8.5   963.3    0.00 
 180   12:20   1.10  104.8    24    5.7   110     8.8   963.1    0.00 
 180   12:30   1.09  105.2    22    4.7   123     8.5   962.9    0.00 
 180   12:40   1.08  105.1    22    4.3   136     9.6   962.8    0.00 
 180   12:50   1.07  105.8    23    3.1   106     8.5   962.7    0.00 
 180   13:00   1.06  106.2    21    6.0   140    11.0   962.5    0.00 
 180   13:10   1.05  106.1    20    4.1   179     7.4   962.3    0.00 
 180   13:20   1.03  105.5    21    5.8   171    12.1   962.2    0.00 
 180   13:30   1.01  105.9    19    4.3   110     9.2   962.1    0.00 
 180   13:40   0.99  106.1    22    5.0   128     8.5   961.9    0.00 
 180   13:50   0.97  105.8    23    3.0   166     8.5   961.8    0.00 
 180   14:00   0.95  106.3    24    3.7   163     8.5   961.6    0.00 
 180   14:10   0.92  106.9    20    4.5   166     9.9   961.4    0.00 
 180   14:20   0.90  105.5    22    4.2   155     7.4   961.2    0.00 

Return to Moapa Valley graphs page.


Western Regional Climate Center,wrcc@dri.edu